Time;durP1;ratioP1;P1;durP2;ratioP2;P2;SDS_P1;SDS_P2;PMS_P1;PMS_P2;Temp;Humidity;BMP_temperature;BMP_pressure;BME280_temperature;BME280_humidity;BME280_pressure;Samples;Min_cycle;Max_cycle;Signal;HPM_P1;HPM_P2
2023/08/27 00:01:48;;;;;;;3.10;1.58;;;21.00;91.20;;;;;;5068914;28;20512;-67
2023/08/27 00:04:14;;;;;;;2.72;1.75;;;21.00;91.20;;;;;;5068002;28;20487;-67
2023/08/27 00:06:40;;;;;;;3.03;1.58;;;21.00;91.20;;;;;;5059678;28;20025;-67
2023/08/27 00:09:06;;;;;;;2.08;1.52;;;21.00;91.30;;;;;;5055169;28;20029;-67
2023/08/27 00:11:32;;;;;;;4.30;1.60;;;21.00;91.30;;;;;;5055500;28;20017;-67
2023/08/27 00:13:57;;;;;;;3.80;2.00;;;21.00;91.40;;;;;;5054973;28;20048;-67
2023/08/27 00:16:23;;;;;;;5.82;2.00;;;21.00;91.50;;;;;;5054115;28;20029;-67
2023/08/27 00:18:49;;;;;;;2.92;1.77;;;21.00;91.40;;;;;;5053080;28;20060;-67
2023/08/27 00:21:14;;;;;;;3.08;1.45;;;21.00;91.60;;;;;;5054957;28;20108;-67
2023/08/27 00:23:40;;;;;;;3.80;1.65;;;21.00;91.70;;;;;;5055491;28;20017;-67
2023/08/27 00:26:05;;;;;;;2.20;1.60;;;20.90;91.60;;;;;;5054578;28;20025;-67
2023/08/27 00:28:31;;;;;;;5.45;1.63;;;20.90;91.70;;;;;;5054973;28;20029;-67
2023/08/27 00:31:03;;;;;;;3.60;1.77;;;20.90;91.80;;;;;;5054840;28;20028;-68
2023/08/27 00:33:29;;;;;;;2.58;1.75;;;21.00;91.80;;;;;;5055116;28;20430;-67
2023/08/27 00:35:55;;;;;;;1.67;1.52;;;20.90;91.90;;;;;;5054675;28;20033;-71
2023/08/27 00:38:20;;;;;;;3.67;1.88;;;20.90;92.20;;;;;;5037049;28;20033;-68
2023/08/27 00:40:46;;;;;;;3.15;1.88;;;21.00;92.10;;;;;;5054994;28;20444;-67
2023/08/27 00:43:12;;;;;;;5.65;1.80;;;20.90;92.20;;;;;;5054479;28;20045;-67
2023/08/27 00:45:38;;;;;;;3.42;2.05;;;20.90;92.10;;;;;;5054508;28;20033;-67
2023/08/27 00:48:05;;;;;;;5.55;1.95;;;20.90;92.20;;;;;;5054664;28;20037;-67
2023/08/27 00:50:31;;;;;;;4.80;2.00;;;20.90;92.40;;;;;;5054825;28;20106;-67
2023/08/27 00:52:57;;;;;;;3.63;1.80;;;21.00;92.40;;;;;;5054273;28;20491;-68
2023/08/27 00:55:23;;;;;;;4.78;1.67;;;21.00;92.50;;;;;;5054227;28;20110;-67
2023/08/27 00:57:49;;;;;;;4.82;1.77;;;20.90;92.60;;;;;;5054506;28;20029;-68
2023/08/27 01:00:17;;;;;;;2.75;1.65;;;21.00;92.60;;;;;;5054255;28;20032;-68
2023/08/27 01:02:44;;;;;;;3.97;1.70;;;21.00;92.70;;;;;;5054577;28;20100;-67
2023/08/27 01:05:11;;;;;;;3.40;1.58;;;21.00;92.50;;;;;;5054106;28;20033;-67
2023/08/27 01:07:52;;;;;;;5.93;1.80;;;21.00;92.60;;;;;;5054570;28;20051;-67
2023/08/27 01:10:26;;;;;;;2.55;1.92;;;21.00;92.70;;;;;;5054108;28;20067;-67
2023/08/27 01:13:04;;;;;;;4.40;1.70;;;21.00;92.80;;;;;;5054484;28;20033;-66
2023/08/27 01:15:32;;;;;;;4.65;2.45;;;20.90;92.90;;;;;;5054245;28;20037;-67
2023/08/27 01:17:59;;;;;;;3.40;2.20;;;21.00;93.00;;;;;;5050841;28;20540;-71
2023/08/27 01:20:26;;;;;;;2.75;2.00;;;20.90;93.10;;;;;;5054188;28;20079;-67
2023/08/27 01:22:52;;;;;;;2.35;1.90;;;21.00;93.20;;;;;;5054110;28;20025;-67
2023/08/27 01:25:20;;;;;;;3.90;1.92;;;21.00;93.20;;;;;;5053450;28;20683;-67
2023/08/27 01:28:09;;;;;;;4.45;1.98;;;21.00;93.30;;;;;;5054370;28;20025;-68
2023/08/27 01:30:43;;;;;;;4.13;2.25;;;21.10;93.20;;;;;;5053931;28;20029;-67
2023/08/27 01:33:17;;;;;;;3.22;1.85;;;21.10;93.20;;;;;;5053313;28;20358;-67
2023/08/27 01:35:45;;;;;;;4.05;2.30;;;21.00;93.30;;;;;;5050173;28;20033;-67
2023/08/27 01:38:12;;;;;;;4.35;2.60;;;21.10;93.40;;;;;;5053416;28;20048;-67
2023/08/27 01:40:39;;;;;;;3.58;2.05;;;21.10;93.50;;;;;;5035918;28;20025;-67
2023/08/27 01:43:05;;;;;;;3.83;2.15;;;21.10;93.60;;;;;;5053392;28;20057;-67
2023/08/27 01:45:31;;;;;;;7.53;2.55;;;21.10;93.50;;;;;;5053687;28;20087;-67
2023/08/27 01:47:56;;;;;;;5.50;2.17;;;21.10;93.60;;;;;;5053643;28;20033;-67
2023/08/27 01:50:22;;;;;;;4.88;2.30;;;21.10;93.80;;;;;;5053266;28;20021;-67
2023/08/27 01:52:47;;;;;;;2.72;2.20;;;21.10;93.60;;;;;;5053325;28;20108;-67
2023/08/27 01:55:13;;;;;;;5.95;2.47;;;21.10;93.70;;;;;;5052703;28;20057;-67
2023/08/27 01:57:39;;;;;;;4.95;2.40;;;21.20;93.70;;;;;;5053623;28;20025;-67
2023/08/27 02:00:08;;;;;;;3.85;2.30;;;21.20;93.70;;;;;;5052999;28;20037;-67
2023/08/27 02:02:36;;;;;;;5.07;2.28;;;21.20;93.90;;;;;;5053171;28;20359;-67
2023/08/27 02:05:08;;;;;;;4.95;2.40;;;21.20;94.00;;;;;;5053116;28;20127;-68
2023/08/27 02:07:38;;;;;;;4.47;2.20;;;21.10;94.00;;;;;;5053460;28;20032;-67
2023/08/27 02:10:08;;;;;;;5.47;2.30;;;21.10;94.00;;;;;;5052915;28;20029;-67
2023/08/27 02:12:34;;;;;;;6.93;2.63;;;21.20;94.00;;;;;;5053267;28;20029;-67
2023/08/27 02:15:02;;;;;;;4.03;2.10;;;21.20;94.00;;;;;;5053122;28;20112;-67
2023/08/27 02:17:28;;;;;;;5.30;2.65;;;21.10;93.90;;;;;;5053099;28;20029;-67
2023/08/27 02:19:53;;;;;;;3.53;1.85;;;21.10;93.90;;;;;;5044562;28;20043;-67
2023/08/27 02:22:19;;;;;;;3.38;1.85;;;21.10;94.00;;;;;;5032731;28;20378;-67
2023/08/27 02:24:44;;;;;;;4.38;2.35;;;21.10;93.90;;;;;;5033122;28;20122;-67
2023/08/27 02:27:10;;;;;;;4.53;2.10;;;21.00;94.00;;;;;;5032675;28;20080;-67
2023/08/27 02:29:36;;;;;;;4.97;2.50;;;21.00;94.10;;;;;;5032615;28;20022;-67
2023/08/27 02:32:02;;;;;;;4.10;2.13;;;21.00;94.10;;;;;;5033004;28;20163;-67
2023/08/27 02:34:28;;;;;;;6.57;2.30;;;21.00;94.40;;;;;;5032842;28;20029;-67
2023/08/27 02:36:53;;;;;;;7.75;2.50;;;21.00;94.30;;;;;;5032768;28;20413;-67
2023/08/27 02:39:19;;;;;;;3.97;2.20;;;21.10;94.40;;;;;;5032726;28;20032;-67
2023/08/27 02:41:45;;;;;;;4.15;2.72;;;21.00;94.50;;;;;;5032792;28;20035;-67
2023/08/27 02:44:10;;;;;;;8.40;2.22;;;21.00;94.70;;;;;;5032855;28;20033;-67
2023/08/27 02:46:36;;;;;;;5.35;2.13;;;21.00;94.80;;;;;;5033031;28;20036;-67
2023/08/27 02:49:01;;;;;;;3.65;2.38;;;21.00;94.70;;;;;;5032923;28;20415;-67
2023/08/27 02:51:27;;;;;;;4.45;1.92;;;21.10;94.70;;;;;;5032600;28;20036;-67
2023/08/27 02:53:53;;;;;;;5.82;2.42;;;21.00;94.70;;;;;;5032471;28;20037;-67
2023/08/27 02:56:18;;;;;;;5.30;2.72;;;21.00;94.60;;;;;;5032509;28;20029;-67
2023/08/27 02:58:46;;;;;;;5.53;2.17;;;21.00;94.60;;;;;;5032735;28;20034;-67
2023/08/27 03:01:18;;;;;;;4.53;2.28;;;21.00;94.60;;;;;;5032158;28;20029;-67
2023/08/27 03:03:44;;;;;;;3.75;2.20;;;21.00;94.70;;;;;;5032763;28;20056;-67
2023/08/27 03:06:10;;;;;;;4.43;2.10;;;21.00;94.80;;;;;;5032339;28;20374;-68
2023/08/27 03:08:35;;;;;;;5.30;2.33;;;21.00;94.70;;;;;;5032885;28;20026;-67
2023/08/27 03:11:01;;;;;;;4.78;2.53;;;21.00;94.50;;;;;;5032660;28;20116;-67
2023/08/27 03:13:26;;;;;;;5.53;2.25;;;21.00;94.60;;;;;;5032225;28;20033;-67
2023/08/27 03:15:52;;;;;;;5.47;2.55;;;21.00;94.70;;;;;;5032669;28;20426;-67
2023/08/27 03:18:18;;;;;;;5.65;2.60;;;21.00;94.80;;;;;;5032464;28;20437;-67
2023/08/27 03:20:43;;;;;;;5.15;2.63;;;21.00;94.80;;;;;;5032387;28;20053;-66
2023/08/27 03:23:09;;;;;;;6.22;2.42;;;21.00;94.90;;;;;;5041486;28;20481;-67
2023/08/27 03:25:34;;;;;;;10.20;2.85;;;21.00;94.80;;;;;;5053185;28;20029;-66
2023/08/27 03:28:00;;;;;;;4.00;2.42;;;21.00;94.80;;;;;;5052946;28;20075;-66
2023/08/27 03:30:26;;;;;;;5.20;2.17;;;21.00;95.00;;;;;;5052578;28;20101;-66
2023/08/27 03:32:51;;;;;;;4.10;2.50;;;21.00;94.70;;;;;;5052648;28;20128;-66
2023/08/27 03:35:17;;;;;;;7.72;2.60;;;21.00;94.80;;;;;;5052503;28;20412;-68
2023/08/27 03:37:43;;;;;;;4.60;2.55;;;20.90;94.90;;;;;;5049888;28;20071;-68
2023/08/27 03:40:09;;;;;;;5.40;2.55;;;20.90;94.90;;;;;;5035122;28;20374;-72
2023/08/27 03:42:34;;;;;;;4.05;2.42;;;21.00;94.90;;;;;;5056267;28;20064;-68
2023/08/27 03:45:00;;;;;;;4.60;2.70;;;21.00;94.90;;;;;;5056652;28;20032;-68
2023/08/27 03:47:26;;;;;;;4.95;2.20;;;21.00;94.90;;;;;;5056361;28;20017;-68
2023/08/27 03:49:52;;;;;;;4.30;2.38;;;20.90;94.70;;;;;;5057271;28;20032;-67
2023/08/27 03:52:18;;;;;;;4.60;2.17;;;20.90;94.80;;;;;;5057374;28;20112;-68
2023/08/27 03:54:44;;;;;;;2.97;2.00;;;20.90;95.10;;;;;;5057836;28;20504;-68
2023/08/27 03:57:09;;;;;;;5.93;2.40;;;20.90;95.00;;;;;;5058253;28;20099;-71
2023/08/27 03:59:35;;;;;;;4.68;2.30;;;20.80;95.20;;;;;;5058867;28;20029;-68
2023/08/27 04:02:00;;;;;;;7.05;2.33;;;20.80;95.30;;;;;;5057519;28;20028;-68
2023/08/27 04:04:26;;;;;;;4.22;2.50;;;20.80;95.20;;;;;;5057958;28;20388;-68
2023/08/27 04:06:54;;;;;;;5.90;2.22;;;20.80;95.40;;;;;;5039604;28;20036;-68
2023/08/27 04:09:20;;;;;;;4.75;2.28;;;20.80;95.40;;;;;;5057211;28;20032;-68
2023/08/27 04:11:46;;;;;;;4.50;2.42;;;20.80;95.60;;;;;;5058738;28;20029;-68
2023/08/27 04:14:12;;;;;;;3.72;2.25;;;20.70;95.60;;;;;;5057508;28;20087;-68
2023/08/27 04:16:37;;;;;;;5.53;2.78;;;20.70;95.60;;;;;;5057275;28;20029;-67
2023/08/27 04:19:03;;;;;;;4.15;2.80;;;20.80;95.80;;;;;;5057982;28;20032;-67
2023/08/27 04:21:29;;;;;;;5.75;2.33;;;20.80;95.70;;;;;;5055365;28;20432;-69
2023/08/27 04:23:55;;;;;;;3.03;2.13;;;20.80;95.90;;;;;;5052263;28;20029;-67
2023/08/27 04:26:21;;;;;;;4.57;2.38;;;20.80;95.40;;;;;;5056205;28;20025;-67
2023/08/27 04:28:47;;;;;;;5.40;2.30;;;20.90;95.40;;;;;;5056591;28;20023;-67
2023/08/27 04:31:15;;;;;;;3.95;2.33;;;20.90;95.30;;;;;;5055024;28;20029;-68
2023/08/27 04:33:40;;;;;;;4.18;2.35;;;20.90;95.40;;;;;;5054995;28;20029;-67
2023/08/27 04:36:06;;;;;;;5.65;2.33;;;21.00;95.00;;;;;;5055046;28;20037;-67
2023/08/27 04:38:31;;;;;;;3.33;2.50;;;21.00;95.00;;;;;;5054507;28;20057;-67
2023/08/27 04:40:57;;;;;;;4.72;2.40;;;21.00;94.90;;;;;;5054731;28;20108;-67
2023/08/27 04:43:23;;;;;;;3.08;2.15;;;21.00;94.90;;;;;;5054280;28;20466;-67
2023/08/27 04:45:48;;;;;;;5.95;1.85;;;21.10;94.90;;;;;;5054561;28;20029;-67
2023/08/27 04:48:14;;;;;;;5.75;2.50;;;21.10;94.70;;;;;;5054452;28;20033;-68
2023/08/27 04:50:43;;;;;;;3.95;2.28;;;21.20;94.60;;;;;;5054953;28;20028;-67
2023/08/27 04:53:09;;;;;;;5.32;2.25;;;21.20;94.50;;;;;;5054580;28;20060;-67
2023/08/27 04:55:35;;;;;;;5.13;2.25;;;21.20;94.50;;;;;;5054156;28;20080;-67
2023/08/27 04:58:00;;;;;;;4.88;2.30;;;21.20;94.30;;;;;;5054701;28;20444;-67
2023/08/27 05:00:26;;;;;;;3.33;2.50;;;21.20;94.10;;;;;;5054175;28;20021;-67
2023/08/27 05:02:52;;;;;;;3.53;2.35;;;21.30;94.50;;;;;;5054565;28;20025;-67
2023/08/27 05:05:17;;;;;;;3.75;2.13;;;21.40;94.20;;;;;;5053768;28;20029;-67
2023/08/27 05:07:43;;;;;;;3.72;2.30;;;21.50;94.10;;;;;;5054865;28;20480;-67
2023/08/27 05:10:09;;;;;;;4.32;2.25;;;21.50;94.10;;;;;;5054303;28;20504;-67
2023/08/27 05:12:35;;;;;;;7.85;2.90;;;21.60;93.90;;;;;;5053712;28;20116;-68
2023/08/27 05:15:01;;;;;;;7.22;2.70;;;21.70;93.60;;;;;;5054196;28;20037;-67
2023/08/27 05:17:26;;;;;;;4.38;2.40;;;21.80;93.40;;;;;;5053915;28;20021;-68
2023/08/27 05:19:52;;;;;;;5.05;2.53;;;21.90;93.30;;;;;;5054234;28;20025;-67
2023/08/27 05:22:17;;;;;;;4.25;2.47;;;22.00;93.00;;;;;;5054156;28;20454;-68
2023/08/27 05:24:43;;;;;;;4.32;2.65;;;22.00;92.80;;;;;;5052277;28;20387;-68
2023/08/27 05:27:09;;;;;;;5.53;2.08;;;22.10;92.70;;;;;;5053892;28;20036;-67
2023/08/27 05:29:34;;;;;;;4.15;2.30;;;22.10;92.80;;;;;;5053639;28;20029;-68
2023/08/27 05:32:00;;;;;;;7.18;2.42;;;22.20;92.50;;;;;;5054237;28;20032;-68
2023/08/27 05:34:26;;;;;;;5.18;2.58;;;22.30;92.30;;;;;;5053568;28;20122;-68
2023/08/27 05:36:52;;;;;;;5.40;2.83;;;22.30;92.40;;;;;;5053963;28;20151;-67
2023/08/27 05:39:18;;;;;;;5.40;2.92;;;22.40;92.10;;;;;;5053365;28;20029;-68
2023/08/27 05:41:43;;;;;;;3.33;2.65;;;22.50;92.10;;;;;;5050548;28;20484;-67
2023/08/27 05:44:09;;;;;;;6.90;2.80;;;22.50;92.00;;;;;;5053547;28;20527;-67
2023/08/27 05:46:35;;;;;;;3.95;2.53;;;22.50;91.90;;;;;;5053360;28;20107;-67
2023/08/27 05:49:00;;;;;;;2.95;2.60;;;22.60;91.60;;;;;;5053725;28;20140;-67
2023/08/27 05:51:26;;;;;;;3.85;2.63;;;22.50;91.40;;;;;;5053263;28;20138;-68
2023/08/27 05:53:52;;;;;;;4.55;2.70;;;22.60;91.60;;;;;;5053325;28;20029;-68
2023/08/27 05:56:18;;;;;;;4.13;2.80;;;22.60;91.40;;;;;;5053626;28;20480;-67
2023/08/27 05:58:43;;;;;;;5.75;2.60;;;22.60;91.40;;;;;;5053227;28;20355;-68
2023/08/27 06:01:09;;;;;;;4.15;2.42;;;22.60;91.40;;;;;;5053369;28;20033;-67
2023/08/27 06:03:35;;;;;;;3.67;2.60;;;22.60;91.60;;;;;;5052166;28;20478;-68
2023/08/27 06:06:01;;;;;;;6.18;3.08;;;22.70;91.40;;;;;;5053405;28;20036;-67
2023/08/27 06:08:26;;;;;;;4.93;2.40;;;22.70;91.40;;;;;;5052669;28;20111;-68
2023/08/27 06:10:52;;;;;;;5.60;2.45;;;22.70;91.30;;;;;;5053047;28;20029;-67
2023/08/27 06:13:18;;;;;;;5.47;2.53;;;22.70;91.40;;;;;;5053210;28;20025;-68
2023/08/27 06:15:44;;;;;;;3.58;2.58;;;22.70;91.10;;;;;;5052655;28;20044;-67
2023/08/27 06:18:09;;;;;;;4.97;2.83;;;22.80;90.90;;;;;;5053266;28;20029;-68
2023/08/27 06:20:35;;;;;;;3.15;2.53;;;22.80;90.50;;;;;;5052450;28;20111;-68
2023/08/27 06:23:07;;;;;;;4.63;2.55;;;22.80;90.60;;;;;;5045123;28;20426;-67
2023/08/27 06:25:36;;;;;;;5.00;2.47;;;22.80;90.60;;;;;;5032781;28;20025;-67
2023/08/27 06:28:05;;;;;;;5.70;2.63;;;22.90;90.50;;;;;;5033038;28;20031;-67
2023/08/27 06:30:31;;;;;;;4.70;2.60;;;23.00;90.40;;;;;;5032640;28;20374;-67
2023/08/27 06:32:57;;;;;;;6.60;2.92;;;23.10;90.60;;;;;;5033013;28;20025;-67
2023/08/27 06:35:23;;;;;;;5.57;2.53;;;23.20;90.20;;;;;;5032503;28;20048;-68
2023/08/27 06:37:49;;;;;;;5.45;2.75;;;23.30;89.90;;;;;;5032987;28;20056;-67
2023/08/27 06:40:15;;;;;;;3.47;2.30;;;23.50;89.40;;;;;;5032894;28;20433;-67
2023/08/27 06:42:41;;;;;;;5.88;2.67;;;23.70;88.50;;;;;;5032128;28;20386;-67
2023/08/27 06:45:07;;;;;;;3.75;2.25;;;23.80;87.90;;;;;;5032767;28;20067;-67
2023/08/27 06:47:33;;;;;;;5.32;2.70;;;24.10;87.30;;;;;;5032065;28;20463;-67
2023/08/27 06:49:59;;;;;;;3.85;2.75;;;24.50;85.50;;;;;;5032882;28;20435;-67
2023/08/27 06:52:25;;;;;;;4.63;2.80;;;24.60;84.00;;;;;;5032370;28;20094;-67
2023/08/27 06:54:50;;;;;;;5.03;2.28;;;24.90;82.10;;;;;;5032432;28;20049;-68
2023/08/27 06:57:16;;;;;;;3.50;2.33;;;25.20;81.00;;;;;;5032700;28;20508;-68
2023/08/27 06:59:42;;;;;;;4.68;2.50;;;25.40;80.20;;;;;;5032287;28;20037;-68
2023/08/27 07:02:07;;;;;;;2.92;2.05;;;26.00;79.20;;;;;;5032411;28;20030;-68
2023/08/27 07:04:33;;;;;;;5.30;2.58;;;26.40;76.20;;;;;;5032244;28;20030;-68
2023/08/27 07:06:59;;;;;;;4.82;2.50;;;26.80;75.10;;;;;;5032634;28;20032;-68
2023/08/27 07:09:26;;;;;;;6.60;2.47;;;27.30;72.50;;;;;;5032179;28;20032;-68
2023/08/27 07:11:52;;;;;;;7.57;2.55;;;27.70;70.90;;;;;;5032635;28;20021;-68
2023/08/27 07:14:18;;;;;;;4.90;2.33;;;28.20;69.30;;;;;;5032647;28;20064;-68
2023/08/27 07:16:43;;;;;;;3.78;1.92;;;28.90;67.20;;;;;;5034212;28;20342;-68
2023/08/27 07:19:09;;;;;;;7.05;2.25;;;29.70;64.40;;;;;;5036652;28;20037;-68
2023/08/27 07:21:35;;;;;;;4.70;2.17;;;30.00;61.30;;;;;;5035821;28;20048;-68
2023/08/27 07:24:00;;;;;;;5.80;2.10;;;29.60;61.00;;;;;;5036238;28;20017;-68
2023/08/27 07:26:26;;;;;;;4.78;2.05;;;29.30;61.90;;;;;;5036049;28;20044;-68
2023/08/27 07:28:51;;;;;;;4.90;2.30;;;29.00;62.30;;;;;;5036367;28;20033;-68
2023/08/27 07:31:17;;;;;;;4.85;2.47;;;28.70;63.00;;;;;;5041532;28;20021;-68
2023/08/27 07:33:42;;;;;;;4.10;1.77;;;28.40;64.30;;;;;;5055852;28;20381;-68
2023/08/27 07:36:08;;;;;;;4.63;2.22;;;28.50;65.00;;;;;;5056252;28;20091;-68
2023/08/27 07:38:40;;;;;;;4.15;2.03;;;28.90;63.60;;;;;;5055725;28;20025;-68
2023/08/27 07:41:06;;;;;;;5.10;1.90;;;28.80;62.80;;;;;;5052981;28;20111;-67
2023/08/27 07:43:32;;;;;;;2.28;1.73;;;28.40;64.20;;;;;;5055762;28;20109;-67
2023/08/27 07:45:57;;;;;;;4.18;1.95;;;28.70;64.00;;;;;;5055871;28;20386;-67
2023/08/27 07:48:23;;;;;;;2.50;1.70;;;29.30;63.00;;;;;;5055990;28;20370;-68
2023/08/27 07:50:49;;;;;;;3.65;1.70;;;29.60;62.60;;;;;;5055603;28;20493;-68
2023/08/27 07:53:15;;;;;;;3.13;1.70;;;30.10;61.70;;;;;;5055757;28;20083;-67
2023/08/27 07:55:41;;;;;;;3.80;1.50;;;30.30;59.90;;;;;;5054962;28;20099;-67
2023/08/27 07:58:07;;;;;;;3.63;1.88;;;30.50;60.20;;;;;;5055651;28;20393;-67
2023/08/27 08:00:33;;;;;;;6.38;2.00;;;30.60;57.60;;;;;;5055380;28;20107;-68
2023/08/27 08:02:59;;;;;;;2.80;1.70;;;30.00;58.20;;;;;;5055993;28;20064;-68
2023/08/27 08:05:24;;;;;;;5.55;1.73;;;30.80;58.70;;;;;;5055414;28;20105;-67
2023/08/27 08:07:50;;;;;;;2.70;1.55;;;31.60;56.50;;;;;;5055246;28;20036;-67
2023/08/27 08:10:16;;;;;;;2.20;1.52;;;31.90;54.80;;;;;;5055516;28;20082;-67
2023/08/27 08:12:43;;;;;;;4.60;1.92;;;31.80;56.00;;;;;;5054855;28;20100;-67
2023/08/27 08:15:09;;;;;;;5.38;1.92;;;32.40;54.30;;;;;;5055338;28;20466;-67
2023/08/27 08:17:35;;;;;;;3.15;2.15;;;33.20;53.60;;;;;;5037147;28;20664;-68
2023/08/27 08:20:02;;;;;;;2.17;1.52;;;33.40;52.50;;;;;;5055377;28;20116;-67
2023/08/27 08:22:28;;;;;;;3.92;1.88;;;33.50;50.80;;;;;;5052026;28;20359;-67
2023/08/27 08:24:54;;;;;;;2.45;1.70;;;33.90;51.60;;;;;;5054861;28;20112;-67
2023/08/27 08:27:19;;;;;;;3.88;1.83;;;34.60;50.20;;;;;;5054689;28;20029;-67
2023/08/27 08:29:45;;;;;;;4.70;1.50;;;34.70;48.80;;;;;;5036924;28;20028;-67
2023/08/27 08:32:10;;;;;;;3.15;1.80;;;34.50;48.50;;;;;;5054949;28;20068;-68
2023/08/27 08:34:36;;;;;;;1.83;1.48;;;34.10;49.30;;;;;;5054588;28;20029;-67
2023/08/27 08:37:02;;;;;;;3.92;2.00;;;34.20;49.20;;;;;;5054625;28;20036;-67
2023/08/27 08:39:27;;;;;;;3.60;1.58;;;34.10;49.30;;;;;;5055190;28;20057;-67
2023/08/27 08:42:09;;;;;;;3.08;1.67;;;34.30;50.00;;;;;;5054450;28;20032;-67
2023/08/27 08:45:13;;;;;;;3.90;2.17;;;34.20;48.50;;;;;;5054484;28;20033;-67
2023/08/27 08:47:39;;;;;;;3.85;1.80;;;34.00;49.40;;;;;;5054339;28;20037;-68
2023/08/27 08:50:08;;;;;;;3.03;1.77;;;33.50;49.80;;;;;;5054780;28;20103;-67
2023/08/27 08:52:40;;;;;;;2.75;1.70;;;33.20;50.50;;;;;;5054232;28;20033;-67
2023/08/27 08:55:10;;;;;;;3.97;1.73;;;32.90;51.30;;;;;;5054616;28;20064;-66
2023/08/27 08:57:43;;;;;;;2.60;1.60;;;32.50;51.10;;;;;;5054286;28;20051;-67
2023/08/27 09:00:11;;;;;;;5.45;1.90;;;31.80;52.30;;;;;;5054718;28;20044;-67
2023/08/27 09:02:38;;;;;;;3.28;1.65;;;31.20;53.60;;;;;;5054200;28;20029;-67
2023/08/27 09:05:05;;;;;;;4.25;1.75;;;30.70;54.40;;;;;;5054445;28;20028;-67
2023/08/27 09:07:33;;;;;;;4.40;2.05;;;30.40;56.00;;;;;;5036522;28;20051;-67
2023/08/27 09:10:00;;;;;;;2.35;1.83;;;30.30;56.90;;;;;;5054301;28;20047;-67
2023/08/27 09:12:26;;;;;;;3.88;1.80;;;30.10;56.70;;;;;;5036358;28;20041;-67
2023/08/27 09:14:52;;;;;;;3.10;1.65;;;30.00;57.10;;;;;;5053539;28;20159;-67
2023/08/27 09:17:19;;;;;;;3.05;1.88;;;29.90;57.40;;;;;;5036323;28;20434;-68
2023/08/27 09:19:46;;;;;;;2.65;1.70;;;29.70;58.00;;;;;;5053852;28;20025;-67
2023/08/27 09:22:13;;;;;;;7.13;1.70;;;29.50;58.50;;;;;;5054186;28;20025;-67
2023/08/27 09:24:41;;;;;;;2.58;1.60;;;29.40;59.30;;;;;;5053751;28;20111;-67
2023/08/27 09:27:06;;;;;;;3.13;1.50;;;29.30;59.20;;;;;;5036233;28;20021;-68
2023/08/27 09:29:33;;;;;;;5.40;1.60;;;29.30;59.30;;;;;;5053734;28;20457;-67
2023/08/27 09:31:59;;;;;;;2.38;1.52;;;29.20;59.00;;;;;;5054120;28;20029;-68
2023/08/27 09:34:25;;;;;;;1.65;1.55;;;29.00;59.10;;;;;;5053570;28;20041;-68
2023/08/27 09:36:51;;;;;;;2.65;1.60;;;28.80;59.50;;;;;;5053530;28;20477;-68
2023/08/27 09:39:18;;;;;;;4.32;1.73;;;28.70;59.40;;;;;;5049211;28;20029;-68
2023/08/27 09:41:44;;;;;;;2.97;1.70;;;28.50;59.70;;;;;;5033481;28;20474;-68
2023/08/27 09:44:11;;;;;;;1.90;1.67;;;28.40;60.60;;;;;;5047435;28;20029;-68
2023/08/27 09:46:37;;;;;;;4.18;2.10;;;28.30;61.30;;;;;;5053260;28;20500;-69
2023/08/27 09:49:06;;;;;;;4.55;1.90;;;28.20;61.90;;;;;;5053922;28;20111;-68
2023/08/27 09:51:33;;;;;;;3.78;1.85;;;28.20;62.50;;;;;;5053474;28;20025;-68
2023/08/27 09:53:59;;;;;;;4.78;1.95;;;28.20;62.80;;;;;;5052758;28;20053;-68
2023/08/27 09:56:26;;;;;;;5.22;1.90;;;28.10;63.60;;;;;;5053568;28;20032;-68
2023/08/27 09:58:54;;;;;;;4.18;2.00;;;28.10;64.00;;;;;;5053014;28;20025;-68
2023/08/27 10:01:21;;;;;;;5.40;2.08;;;28.10;64.50;;;;;;5053122;28;20032;-67
2023/08/27 10:03:47;;;;;;;4.03;2.20;;;28.00;64.90;;;;;;5052893;28;20024;-68
2023/08/27 10:06:14;;;;;;;2.53;1.85;;;28.00;65.20;;;;;;5053241;28;20036;-68
2023/08/27 10:08:53;;;;;;;3.88;2.20;;;28.00;65.30;;;;;;5018571;28;20056;-68
2023/08/27 10:11:22;;;;;;;5.57;2.40;;;28.10;65.70;;;;;;5053470;28;20028;-66
2023/08/27 10:13:48;;;;;;;2.88;2.30;;;28.10;65.30;;;;;;5052706;28;20489;-67
2023/08/27 10:16:15;;;;;;;4.60;2.17;;;28.20;64.60;;;;;;5053288;28;20033;-68
2023/08/27 10:18:41;;;;;;;3.83;2.30;;;28.30;64.30;;;;;;5052742;28;20083;-68
2023/08/27 10:21:08;;;;;;;3.30;2.70;;;28.50;63.40;;;;;;5050461;28;20027;-68
2023/08/27 10:23:39;;;;;;;3.15;2.60;;;28.60;62.50;;;;;;5015216;28;20053;-68
2023/08/27 10:26:05;;;;;;;4.57;3.05;;;28.70;61.80;;;;;;5033321;28;20060;-68
2023/08/27 10:28:35;;;;;;;3.75;2.78;;;28.90;61.60;;;;;;5032947;28;20025;-66
2023/08/27 10:31:02;;;;;;;3.42;2.72;;;29.10;60.70;;;;;;5032938;28;20036;-67
2023/08/27 10:33:28;;;;;;;3.03;2.72;;;29.20;60.20;;;;;;5032808;28;20034;-67
2023/08/27 10:35:55;;;;;;;4.72;3.13;;;29.20;59.80;;;;;;5032523;28;20082;-68
2023/08/27 10:38:25;;;;;;;3.75;2.83;;;29.40;59.90;;;;;;5032891;28;20458;-67
2023/08/27 10:40:51;;;;;;;3.95;3.17;;;29.40;59.70;;;;;;5014874;28;20048;-68
2023/08/27 10:43:21;;;;;;;6.38;3.53;;;29.40;59.60;;;;;;5032615;28;20474;-68
2023/08/27 10:45:48;;;;;;;4.45;3.00;;;29.50;59.80;;;;;;5032129;28;20032;-68
2023/08/27 10:48:20;;;;;;;3.63;3.20;;;29.50;59.20;;;;;;5032782;28;20032;-68
2023/08/27 10:50:58;;;;;;;6.63;3.90;;;29.40;59.70;;;;;;5031957;28;20033;-68
2023/08/27 10:53:24;;;;;;;3.50;2.70;;;29.50;59.70;;;;;;5032759;28;20378;-67
2023/08/27 10:55:53;;;;;;;4.47;3.00;;;29.60;60.00;;;;;;5032241;28;20048;-68
2023/08/27 10:58:23;;;;;;;4.18;3.17;;;29.70;59.60;;;;;;5014988;28;20025;-68
2023/08/27 11:01:08;;;;;;;6.43;3.00;;;29.80;59.40;;;;;;5032074;28;20030;-68
2023/08/27 11:03:56;;;;;;;3.90;2.90;;;29.80;59.60;;;;;;5032551;28;20030;-67
2023/08/27 11:06:45;;;;;;;3.85;3.03;;;29.80;60.00;;;;;;5014814;28;20108;-68
2023/08/27 11:09:20;;;;;;;5.38;3.28;;;29.80;59.80;;;;;;5032495;28;20051;-68
2023/08/27 11:11:50;;;;;;;4.25;3.08;;;29.90;60.50;;;;;;5032209;28;20021;-68
2023/08/27 11:14:17;;;;;;;4.07;3.25;;;30.00;59.80;;;;;;5014435;28;20033;-68
2023/08/27 11:16:54;;;;;;;11.95;3.80;;;30.10;60.10;;;;;;5032128;28;20030;-69
2023/08/27 11:19:31;;;;;;;7.50;3.60;;;30.30;59.30;;;;;;5032743;28;20032;-68
2023/08/27 11:22:09;;;;;;;5.82;3.58;;;30.40;58.80;;;;;;5014297;28;20026;-67
2023/08/27 11:24:56;;;;;;;4.00;3.60;;;30.50;58.50;;;;;;5032774;28;20056;-67
2023/08/27 11:27:25;;;;;;;8.60;3.95;;;30.50;58.20;;;;;;5031672;28;20394;-67
2023/08/27 11:29:53;;;;;;;4.28;3.80;;;30.60;58.10;;;;;;5032039;28;20087;-67
2023/08/27 11:32:20;;;;;;;7.40;4.03;;;30.50;57.70;;;;;;5032543;28;20025;-67
2023/08/27 11:34:49;;;;;;;6.45;3.95;;;30.50;57.80;;;;;;5039213;28;20397;-67
2023/08/27 11:37:14;;;;;;;4.82;3.97;;;30.50;58.80;;;;;;5052257;28;20032;-67
2023/08/27 11:39:40;;;;;;;3.90;2.80;;;30.40;57.90;;;;;;5037464;28;20382;-67
2023/08/27 11:42:14;;;;;;;3.83;2.58;;;30.20;61.80;;;;;;5031830;28;20549;-67
2023/08/27 11:44:46;;;;;;;7.20;3.20;;;30.00;63.40;;;;;;5032601;28;20035;-67
2023/08/27 11:47:12;;;;;;;5.93;3.03;;;29.70;64.70;;;;;;5032275;28;20079;-67
2023/08/27 11:49:39;;;;;;;3.67;2.70;;;29.40;66.10;;;;;;5031898;28;20029;-67
2023/08/27 11:52:05;;;;;;;6.30;2.97;;;29.10;67.10;;;;;;5032076;28;20417;-67
2023/08/27 11:54:32;;;;;;;6.40;2.72;;;28.90;68.00;;;;;;5031974;28;20401;-67
2023/08/27 11:56:58;;;;;;;3.72;3.05;;;28.80;68.50;;;;;;5031711;28;20021;-67
2023/08/27 11:59:27;;;;;;;5.80;2.97;;;28.70;68.80;;;;;;5032046;28;20025;-67
2023/08/27 12:01:54;;;;;;;4.28;3.20;;;28.60;68.90;;;;;;5032141;28;20108;-67
2023/08/27 12:04:21;;;;;;;4.75;3.30;;;28.60;68.90;;;;;;5035609;28;20036;-66
2023/08/27 12:06:56;;;;;;;4.07;3.03;;;28.50;68.80;;;;;;5035284;28;20108;-68
2023/08/27 12:09:28;;;;;;;6.72;3.45;;;28.60;68.50;;;;;;5035540;28;20534;-67
2023/08/27 12:11:54;;;;;;;4.82;3.75;;;28.60;68.00;;;;;;5017453;28;20061;-67
2023/08/27 12:14:27;;;;;;;4.63;3.45;;;28.60;67.80;;;;;;5035384;28;20025;-67
2023/08/27 12:16:53;;;;;;;6.10;3.55;;;28.50;67.70;;;;;;5035105;28;20076;-67
2023/08/27 12:19:21;;;;;;;4.65;3.28;;;28.20;68.90;;;;;;5035415;28;20029;-67
2023/08/27 12:21:47;;;;;;;4.70;3.28;;;28.20;69.40;;;;;;5034669;28;20425;-70
2023/08/27 12:24:48;;;;;;;6.40;3.50;;;28.10;69.60;;;;;;5035389;28;20075;-67
2023/08/27 12:27:19;;;;;;;3.70;2.80;;;27.80;70.10;;;;;;4935580;29;20082;-67
2023/08/27 12:29:46;;;;;;;7.05;3.80;;;27.70;71.20;;;;;;5033990;28;20048;-67
2023/08/27 12:32:13;;;;;;;7.78;3.47;;;27.60;71.80;;;;;;5054737;28;20126;-67
2023/08/27 12:34:41;;;;;;;5.70;3.63;;;27.50;71.80;;;;;;5054569;28;20033;-67
2023/08/27 12:37:07;;;;;;;9.90;3.78;;;27.40;72.00;;;;;;5054578;28;20021;-67
2023/08/27 12:39:33;;;;;;;5.38;3.50;;;27.30;72.00;;;;;;5054949;28;20032;-67
2023/08/27 12:42:00;;;;;;;5.28;3.25;;;27.20;72.70;;;;;;5054447;28;20033;-67
2023/08/27 12:44:26;;;;;;;6.88;3.28;;;27.20;72.30;;;;;;5054822;28;20037;-67
2023/08/27 12:46:52;;;;;;;5.40;3.55;;;27.10;72.10;;;;;;5054121;28;20528;-68
2023/08/27 12:49:17;;;;;;;5.40;3.47;;;27.10;72.20;;;;;;5054778;28;20084;-68